createdAt,value
2023-03-15T00:01:24.323Z,25.93
2023-03-15T00:03:51.350Z,21.45
2023-03-15T00:06:18.326Z,25.70
2023-03-15T00:08:47.939Z,22.27
2023-03-15T00:11:17.042Z,21.33
2023-03-15T00:13:45.289Z,22.92
2023-03-15T00:16:12.577Z,23.57
2023-03-15T00:18:39.408Z,21.70
2023-03-15T00:21:06.267Z,18.53
2023-03-15T00:23:33.089Z,19.13
2023-03-15T00:25:59.872Z,17.63
2023-03-15T00:28:26.774Z,16.97
2023-03-15T00:31:18.262Z,18.00
2023-03-15T00:33:45.536Z,18.03
2023-03-15T00:36:12.932Z,17.73
2023-03-15T00:38:41.220Z,14.97
2023-03-15T00:41:10.883Z,15.83
2023-03-15T00:43:37.702Z,19.47
2023-03-15T00:46:05.668Z,15.53
2023-03-15T00:48:35.273Z,18.37
2023-03-15T00:51:11.092Z,21.17
2023-03-15T00:53:40.665Z,18.30
2023-03-15T00:56:14.407Z,19.70
2023-03-15T00:58:41.598Z,15.37
2023-03-15T01:01:10.759Z,19.23
2023-03-15T01:06:10.803Z,17.17
2023-03-15T01:08:37.796Z,20.87
2023-03-15T01:11:07.137Z,20.77
2023-03-15T01:16:01.269Z,18.03
2023-03-15T01:18:28.472Z,20.90
2023-03-15T01:20:57.294Z,17.77
2023-03-15T01:23:24.199Z,21.77
2023-03-15T01:25:51.050Z,16.97
2023-03-15T01:28:18.197Z,14.93
2023-03-15T01:30:52.285Z,14.50
2023-03-15T01:33:20.584Z,14.80
2023-03-15T01:35:48.546Z,13.40
2023-03-15T01:38:15.508Z,13.47
2023-03-15T01:40:45.536Z,14.03
2023-03-15T01:43:16.885Z,12.57
2023-03-15T01:46:02.334Z,14.40
2023-03-15T01:48:45.002Z,12.60
2023-03-15T01:52:01.754Z,16.47
2023-03-15T01:54:46.263Z,15.37
2023-03-15T01:57:26.852Z,13.13
2023-03-15T02:00:22.830Z,13.87
2023-03-15T02:03:21.288Z,12.60
2023-03-15T02:05:56.870Z,14.43
2023-03-15T02:08:39.816Z,16.90
2023-03-15T02:11:07.372Z,15.37
2023-03-15T02:13:35.875Z,15.80
2023-03-15T02:16:08.028Z,14.90
2023-03-15T02:18:57.698Z,18.07
2023-03-15T02:21:36.161Z,17.73
2023-03-15T02:24:11.767Z,15.60
2023-03-15T02:26:44.263Z,17.93
2023-03-15T02:29:11.883Z,13.80
2023-03-15T02:31:39.380Z,12.30
2023-03-15T02:34:07.832Z,14.57
2023-03-15T02:36:37.132Z,13.67
2023-03-15T02:39:16.909Z,17.17
2023-03-15T02:41:58.203Z,16.90
2023-03-15T02:44:37.322Z,16.77
2023-03-15T02:47:27.153Z,16.73
2023-03-15T02:49:54.515Z,13.73
2023-03-15T02:52:23.051Z,17.37
2023-03-15T02:54:50.457Z,16.67
2023-03-15T02:57:19.337Z,16.30
2023-03-15T02:59:47.550Z,17.57
2023-03-15T03:02:14.600Z,16.37
2023-03-15T03:04:43.123Z,15.48
2023-03-15T03:07:10.124Z,16.33
2023-03-15T03:09:59.692Z,18.13
2023-03-15T03:12:27.911Z,16.60
2023-03-15T03:14:56.784Z,17.90
2023-03-15T03:19:52.150Z,19.63
2023-03-15T03:22:24.796Z,15.87
2023-03-15T03:24:52.366Z,20.53
2023-03-15T03:27:19.564Z,20.50
2023-03-15T03:29:47.418Z,17.80
2023-03-15T03:32:15.785Z,16.00
2023-03-15T03:34:48.429Z,21.07
2023-03-15T03:37:20.963Z,20.90
2023-03-15T03:39:57.363Z,21.07
2023-03-15T03:42:24.207Z,23.33
2023-03-15T03:44:51.414Z,22.47
2023-03-15T03:47:19.431Z,22.40
2023-03-15T03:49:46.370Z,28.13
2023-03-15T03:52:13.244Z,23.90
2023-03-15T03:54:40.127Z,27.43
2023-03-15T03:57:07.463Z,26.70
2023-03-15T03:59:36.005Z,41.33
2023-03-15T04:02:05.319Z,34.10
2023-03-15T04:04:32.332Z,36.20
2023-03-15T04:06:59.678Z,28.87
2023-03-15T04:09:32.436Z,27.33
2023-03-15T04:11:59.411Z,26.37
2023-03-15T04:14:26.352Z,24.90
2023-03-15T04:16:54.739Z,24.97
2023-03-15T04:19:23.342Z,25.88
2023-03-15T04:21:52.521Z,24.73
2023-03-15T04:24:39.961Z,31.40
2023-03-15T04:27:14.864Z,34.57
2023-03-15T04:29:59.636Z,23.97
2023-03-15T04:32:26.503Z,29.20
2023-03-15T04:35:09.698Z,33.00
2023-03-15T04:37:47.262Z,31.33
2023-03-15T05:33:55.970Z,13.43
2023-03-15T05:36:52.269Z,16.13
2023-03-15T05:42:39.152Z,17.80
2023-03-15T05:45:26.265Z,20.37
2023-03-15T05:48:11.722Z,18.53
2023-03-15T05:51:03.871Z,19.47
2023-03-15T05:53:42.452Z,14.03
2023-03-15T05:56:26.520Z,12.43
2023-03-15T05:59:22.310Z,15.67
2023-03-15T06:02:07.520Z,14.27
2023-03-15T06:04:42.672Z,13.73
2023-03-15T06:07:11.607Z,9.10
2023-03-15T06:09:38.547Z,7.93
2023-03-15T06:12:05.813Z,10.60
2023-03-15T06:14:32.746Z,10.00
2023-03-15T06:17:05.710Z,8.57
2023-03-15T06:19:32.687Z,7.40
2023-03-15T06:22:00.277Z,6.27
2023-03-15T06:24:36.717Z,5.60
2023-03-15T06:27:03.826Z,6.80
2023-03-15T06:29:31.288Z,6.33
2023-03-15T06:31:59.179Z,6.87
2023-03-15T06:34:27.754Z,8.45
2023-03-15T06:36:55.975Z,8.43
2023-03-15T06:39:24.031Z,10.53
2023-03-15T06:41:54.127Z,8.60
2023-03-15T06:44:22.959Z,8.57
2023-03-15T06:46:55.192Z,5.83
2023-03-15T06:49:22.065Z,8.80
2023-03-15T06:51:49.363Z,8.70
2023-03-15T06:54:16.220Z,6.00
2023-03-15T06:56:43.875Z,8.57
2023-03-15T06:59:11.548Z,9.30
2023-03-15T07:01:38.567Z,7.70
2023-03-15T07:04:08.206Z,11.37
2023-03-15T07:06:36.119Z,9.80
2023-03-15T07:09:05.352Z,5.83
2023-03-15T07:11:33.147Z,10.65
2023-03-15T07:13:59.975Z,5.97
2023-03-15T07:16:26.768Z,8.67
2023-03-15T07:18:56.743Z,9.43
2023-03-15T07:21:23.540Z,8.10
2023-03-15T07:23:50.583Z,12.33
2023-03-15T07:26:17.418Z,9.20
2023-03-15T07:28:44.998Z,7.87
2023-03-15T07:31:12.515Z,8.30
2023-03-15T07:33:39.819Z,5.97
2023-03-15T07:36:08.408Z,9.53
2023-03-15T07:38:36.322Z,8.85
2023-03-15T07:41:05.805Z,10.17
2023-03-15T07:43:33.092Z,7.97
2023-03-15T07:46:13.794Z,8.50
2023-03-15T07:48:41.278Z,13.53
2023-03-15T07:51:08.164Z,11.70
2023-03-15T07:53:35.003Z,10.97
2023-03-15T07:56:01.982Z,8.90
2023-03-15T07:58:28.826Z,10.67
2023-03-15T08:00:56.662Z,11.07
2023-03-15T08:03:25.102Z,5.97
2023-03-15T08:05:52.001Z,7.75
2023-03-15T08:08:19.036Z,7.67
2023-03-15T08:10:46.251Z,5.63
2023-03-15T08:13:13.757Z,6.37
2023-03-15T08:15:41.616Z,5.43
2023-03-15T08:18:08.498Z,6.17
2023-03-15T08:20:35.375Z,8.67
2023-03-15T08:23:02.768Z,5.37
2023-03-15T08:25:30.180Z,4.63
2023-03-15T08:27:57.107Z,4.77
2023-03-15T08:30:24.503Z,5.87
2023-03-15T08:32:54.726Z,3.80
2023-03-15T08:35:22.515Z,5.20
2023-03-15T08:37:50.520Z,5.70
2023-03-15T08:40:24.037Z,6.40
2023-03-15T08:42:51.948Z,6.07
2023-03-15T08:45:19.813Z,9.63
2023-03-15T08:47:46.670Z,5.67
2023-03-15T08:50:15.609Z,7.33
2023-03-15T08:52:43.581Z,6.63
2023-03-15T08:55:14.502Z,5.38
2023-03-15T08:57:42.538Z,4.55
2023-03-15T09:00:10.028Z,5.40
2023-03-15T09:02:37.397Z,6.50
2023-03-15T09:05:07.388Z,5.90
2023-03-15T09:07:34.598Z,6.37
2023-03-15T09:10:04.019Z,7.25
2023-03-15T09:12:32.211Z,8.43
2023-03-15T09:14:58.993Z,8.23
2023-03-15T09:17:25.845Z,6.97
2023-03-15T09:19:52.776Z,5.43
2023-03-15T09:22:29.234Z,5.23
2023-03-15T09:25:05.755Z,9.33
2023-03-15T09:27:33.443Z,6.27
2023-03-15T09:30:00.278Z,7.73
2023-03-15T09:32:27.704Z,8.93
2023-03-15T09:34:54.530Z,7.37
2023-03-15T09:37:22.102Z,5.67
2023-03-15T09:39:48.959Z,7.57
2023-03-15T09:42:54.196Z,7.67
2023-03-15T09:45:30.142Z,8.77
2023-03-15T09:48:13.225Z,11.23
2023-03-15T09:50:48.855Z,8.60
2023-03-15T09:53:25.057Z,7.78
2023-03-15T09:55:52.561Z,7.47
2023-03-15T09:58:27.093Z,4.85
2023-03-15T10:01:01.027Z,7.05
2023-03-15T10:03:43.256Z,6.43
2023-03-15T10:06:18.935Z,7.50
2023-03-15T10:08:57.851Z,6.35
2023-03-15T10:11:37.709Z,4.75
2023-03-15T10:14:25.275Z,7.90
2023-03-15T10:16:52.646Z,7.35
2023-03-15T10:19:39.059Z,4.97
2023-03-15T10:22:14.968Z,8.67
2023-03-15T10:24:57.181Z,5.72
2023-03-15T10:27:37.780Z,4.93
2023-03-15T10:30:25.598Z,8.57
2023-03-15T10:33:00.387Z,5.97
2023-03-15T10:35:27.432Z,7.03
2023-03-15T10:37:54.945Z,5.18
2023-03-15T10:40:43.639Z,8.85
2023-03-15T10:43:26.091Z,4.25
2023-03-15T10:46:05.440Z,6.03
2023-03-15T10:51:28.865Z,5.90
2023-03-15T10:54:08.032Z,7.47
2023-03-15T10:56:48.387Z,9.07
2023-03-15T10:59:18.195Z,4.88
2023-03-15T11:01:48.380Z,4.93
2023-03-15T11:04:19.469Z,5.85
2023-03-15T11:06:55.515Z,6.28
2023-03-15T11:09:25.576Z,6.80
2023-03-15T11:12:07.441Z,8.10
2023-03-15T11:14:41.261Z,6.45
2023-03-15T11:17:17.348Z,9.15
2023-03-15T11:20:16.542Z,6.70
2023-03-15T11:25:17.665Z,6.82
2023-03-15T11:27:47.051Z,5.57
2023-03-15T11:32:43.508Z,4.45
2023-03-15T11:35:32.346Z,8.02
2023-03-15T11:38:33.606Z,10.18
2023-03-15T11:41:05.273Z,6.50
2023-03-15T11:43:41.137Z,7.40
2023-03-15T11:46:29.514Z,4.20
2023-03-15T11:49:02.717Z,4.43
2023-03-15T11:51:35.304Z,6.77
2023-03-15T11:54:07.387Z,7.53
2023-03-15T11:57:01.625Z,7.57
2023-03-15T11:59:38.243Z,7.03
2023-03-15T12:02:15.298Z,7.17
2023-03-15T12:04:47.419Z,5.40
2023-03-15T12:07:24.008Z,4.30
2023-03-15T12:10:17.915Z,3.73
2023-03-15T12:12:56.779Z,8.63
2023-03-15T12:15:23.526Z,8.93
2023-03-15T12:17:57.260Z,5.47
2023-03-15T12:20:38.543Z,3.60
2023-03-15T12:23:17.579Z,4.80
2023-03-15T12:26:07.020Z,7.35
2023-03-15T12:28:38.419Z,7.47
2023-03-15T12:31:09.348Z,5.23
2023-03-15T12:33:51.536Z,6.47
2023-03-15T12:36:36.315Z,8.37
2023-03-15T12:39:22.570Z,8.47
2023-03-15T12:41:51.677Z,7.73
2023-03-15T12:44:39.890Z,7.50
2023-03-15T12:47:11.950Z,5.10
2023-03-15T12:49:44.599Z,6.80
2023-03-15T12:52:11.360Z,3.73
2023-03-15T12:54:50.027Z,6.20
2023-03-15T12:57:22.298Z,6.30
2023-03-15T12:59:55.204Z,3.80
2023-03-15T13:03:08.639Z,3.90
2023-03-15T13:06:04.675Z,5.30
2023-03-15T13:08:37.333Z,5.10
2023-03-15T13:11:06.816Z,1.83
2023-03-15T13:13:49.571Z,2.57
2023-03-15T13:16:24.028Z,2.83
2023-03-15T13:19:14.347Z,4.10
2023-03-15T13:22:05.774Z,2.80
2023-03-15T13:25:01.573Z,3.40
2023-03-15T13:27:35.232Z,5.10
2023-03-15T13:30:30.440Z,3.67
2023-03-15T13:33:10.319Z,5.33
2023-03-15T13:35:45.757Z,3.10
2023-03-15T13:38:27.157Z,3.83
2023-03-15T13:40:56.073Z,3.87
2023-03-15T13:43:37.970Z,5.18
2023-03-15T13:46:06.004Z,6.63
2023-03-15T13:48:40.337Z,6.43
2023-03-15T13:51:27.927Z,6.17
2023-03-15T13:54:00.617Z,6.07
2023-03-15T13:56:43.690Z,7.07
2023-03-15T13:59:16.093Z,5.73
2023-03-15T14:01:43.376Z,3.93
2023-03-15T14:04:17.537Z,2.37
2023-03-15T14:06:45.993Z,5.00
2023-03-15T14:09:26.118Z,8.00
2023-03-15T14:12:05.656Z,4.97
2023-03-15T14:14:37.387Z,7.17
2023-03-15T14:17:18.830Z,3.93
2023-03-15T14:19:55.829Z,4.70
2023-03-15T14:22:23.274Z,6.63
2023-03-15T14:24:52.667Z,7.27
2023-03-15T14:29:54.613Z,4.47
2023-03-15T14:32:33.266Z,4.68
2023-03-15T14:35:25.918Z,7.28
2023-03-15T14:38:21.375Z,4.10
2023-03-15T14:40:49.432Z,4.67
2023-03-15T14:43:16.390Z,3.37
2023-03-15T14:45:46.426Z,11.77
2023-03-15T14:48:29.660Z,15.90
2023-03-15T14:50:56.823Z,11.43
2023-03-15T14:53:26.948Z,6.13
2023-03-15T14:55:53.779Z,8.83
2023-03-15T14:58:22.510Z,6.53
2023-03-15T15:00:53.404Z,26.92
2023-03-15T15:03:38.546Z,10.33
2023-03-15T15:06:08.739Z,11.07
2023-03-15T15:08:40.121Z,10.40
2023-03-15T15:11:11.261Z,6.87
2023-03-15T15:13:39.548Z,6.77
2023-03-15T15:16:06.887Z,4.37
2023-03-15T15:18:36.273Z,3.90
2023-03-15T15:21:12.406Z,4.50
2023-03-15T15:23:57.008Z,2.40
2023-03-15T15:26:30.612Z,5.47
2023-03-15T15:28:58.205Z,5.67
2023-03-15T15:31:26.952Z,5.20
2023-03-15T15:33:55.206Z,4.18
2023-03-15T15:36:31.120Z,6.83
2023-03-15T15:39:06.080Z,4.60
2023-03-15T15:41:33.532Z,7.97
2023-03-15T15:44:00.744Z,5.17
2023-03-15T15:46:28.033Z,5.70
2023-03-15T15:48:55.109Z,5.17
2023-03-15T15:51:38.789Z,8.77
2023-03-15T15:54:06.096Z,7.57
2023-03-15T15:56:36.944Z,5.37
2023-03-15T15:59:05.160Z,4.77
2023-03-15T16:01:33.108Z,4.70
2023-03-15T16:04:02.329Z,3.50
2023-03-15T16:06:29.539Z,4.72
2023-03-15T16:08:56.846Z,5.80
2023-03-15T16:11:23.829Z,4.87
2023-03-15T16:13:54.016Z,5.50
2023-03-15T16:16:22.139Z,5.17
2023-03-15T16:18:49.345Z,7.43
2023-03-15T16:21:22.346Z,4.73
2023-03-15T16:23:59.344Z,8.47
2023-03-15T16:26:26.294Z,4.87
2023-03-15T16:28:53.198Z,7.53
2023-03-15T16:31:22.215Z,7.23
2023-03-15T16:33:50.025Z,6.75
2023-03-15T16:36:21.760Z,5.47
2023-03-15T16:38:49.342Z,4.07
2023-03-15T16:41:17.302Z,7.10
2023-03-15T16:43:45.798Z,9.10
2023-03-15T16:46:16.308Z,8.00
2023-03-15T16:48:43.491Z,7.75
2023-03-15T16:51:13.302Z,8.10
2023-03-15T16:53:44.718Z,10.23
2023-03-15T16:56:15.509Z,8.90
2023-03-15T16:58:44.053Z,13.60
2023-03-15T17:01:11.987Z,9.93
2023-03-15T17:03:38.856Z,7.50
2023-03-15T17:06:06.204Z,8.13
2023-03-15T17:08:33.690Z,5.30
2023-03-15T17:11:01.003Z,9.77
2023-03-15T17:13:29.965Z,6.77
2023-03-15T17:15:57.825Z,11.38
2023-03-15T17:18:24.771Z,12.70
2023-03-15T17:20:51.659Z,10.63
2023-03-15T17:23:21.257Z,10.23
2023-03-15T17:25:48.625Z,11.93
2023-03-15T17:28:21.573Z,13.57
2023-03-15T17:30:49.800Z,12.07
2023-03-15T17:33:18.511Z,13.13
2023-03-15T17:35:50.026Z,12.77
2023-03-15T17:38:22.208Z,11.80
2023-03-15T17:40:49.552Z,7.70
2023-03-15T17:43:17.136Z,6.90
2023-03-15T17:45:44.503Z,6.63
2023-03-15T17:48:11.773Z,6.23
2023-03-15T17:50:40.161Z,6.73
2023-03-15T17:53:15.215Z,12.00
2023-03-15T17:55:42.665Z,17.10
2023-03-15T17:58:15.077Z,17.00
2023-03-15T18:00:43.694Z,17.57
2023-03-15T18:03:14.725Z,19.40
2023-03-15T18:05:41.885Z,13.67
2023-03-15T18:08:21.731Z,13.47
2023-03-15T18:10:51.643Z,10.07
2023-03-15T18:13:21.734Z,6.90
2023-03-15T18:15:51.926Z,6.83
2023-03-15T18:18:19.200Z,7.37
2023-03-15T18:20:47.378Z,5.83
2023-03-15T18:23:15.723Z,6.27
2023-03-15T18:25:43.017Z,7.50
2023-03-15T18:28:12.417Z,15.33
2023-03-15T18:33:06.955Z,23.87
2023-03-15T18:35:36.181Z,26.80
2023-03-15T18:38:04.665Z,22.25
2023-03-15T18:40:33.056Z,21.77
2023-03-15T18:43:00.507Z,26.57
2023-03-15T18:45:33.027Z,26.57
2023-03-15T18:48:00.433Z,22.87
2023-03-15T18:50:28.666Z,26.10
2023-03-15T18:52:55.816Z,28.80
2023-03-15T18:55:22.773Z,26.53
2023-03-15T18:57:52.196Z,25.70
2023-03-15T19:03:00.889Z,31.50
2023-03-15T19:05:29.537Z,33.23
2023-03-15T19:07:56.581Z,30.02
2023-03-15T19:10:24.809Z,32.83
2023-03-15T19:12:55.248Z,29.33
2023-03-15T19:15:23.661Z,27.27
2023-03-15T19:17:54.671Z,32.27
2023-03-15T19:20:22.386Z,31.00
2023-03-15T19:22:51.311Z,28.87
2023-03-15T19:25:18.852Z,26.08
2023-03-15T19:27:45.955Z,21.43
2023-03-15T19:30:18.096Z,15.80
2023-03-15T19:32:47.810Z,18.77
2023-03-15T19:35:14.783Z,17.23
2023-03-15T19:37:44.524Z,17.03
2023-03-15T19:40:13.008Z,13.27
2023-03-15T19:42:39.912Z,15.80
2023-03-15T19:45:07.945Z,14.03
2023-03-15T19:47:35.020Z,14.13
2023-03-15T19:50:02.279Z,16.07
2023-03-15T19:52:29.427Z,15.63
2023-03-15T19:54:56.589Z,16.53
2023-03-15T19:57:23.459Z,18.20
2023-03-15T19:59:50.292Z,22.67
2023-03-15T20:02:17.169Z,29.40
2023-03-15T20:04:44.243Z,30.67
2023-03-15T20:07:11.338Z,25.80
2023-03-15T20:09:39.316Z,31.10
2023-03-15T20:12:07.831Z,28.67
2023-03-15T20:14:35.297Z,23.23
2023-03-15T20:17:02.343Z,25.00
2023-03-15T20:19:30.142Z,21.70
2023-03-15T20:21:58.080Z,21.07
2023-03-15T20:24:25.177Z,21.57
2023-03-15T20:26:52.383Z,19.50
2023-03-15T20:29:19.456Z,20.20
2023-03-15T20:31:46.261Z,21.17
2023-03-15T20:34:13.374Z,19.53
2023-03-15T20:36:41.978Z,22.00
2023-03-15T20:39:08.859Z,20.70
2023-03-15T20:41:35.824Z,20.87
2023-03-15T20:44:02.605Z,19.40
2023-03-15T20:46:29.786Z,21.50
2023-03-15T20:48:57.281Z,23.20
2023-03-15T20:51:24.218Z,20.67
2023-03-15T20:53:51.219Z,20.77
2023-03-15T20:56:19.934Z,16.67
2023-03-15T20:58:47.667Z,15.40
2023-03-15T21:01:16.828Z,15.23
2023-03-15T21:03:45.060Z,12.05
2023-03-15T21:06:13.093Z,12.03
2023-03-15T21:08:41.659Z,11.03
2023-03-15T21:11:08.900Z,8.25
2023-03-15T21:13:36.225Z,7.93
2023-03-15T21:16:04.873Z,7.50
2023-03-15T21:18:33.347Z,6.78
2023-03-15T21:21:02.801Z,10.03
2023-03-15T21:26:05.754Z,8.07
2023-03-15T21:28:33.319Z,3.20
2023-03-15T21:31:01.130Z,3.43
2023-03-15T21:33:30.229Z,2.93
2023-03-15T21:35:59.169Z,3.05
2023-03-15T23:39:59.938Z,0.60
2023-03-15T23:42:27.632Z,0.77
2023-03-15T23:44:55.612Z,0.63
2023-03-15T23:47:24.205Z,0.33
2023-03-15T23:49:51.869Z,0.68
2023-03-15T23:52:19.006Z,0.97
2023-03-15T23:54:46.049Z,1.23
2023-03-15T23:57:14.610Z,0.63
